Time;durP1;ratioP1;P1;durP2;ratioP2;P2;SDS_P1;SDS_P2;PMS_P1;PMS_P2;Temp;Humidity;BMP_temperature;BMP_pressure;BME280_temperature;BME280_humidity;BME280_pressure;Samples;Min_cycle;Max_cycle;Signal;HPM_P1;HPM_P2
2024/01/25 00:00:39;;;;;;;15.80;2.63;;;;;;;6.32;100.00;100004.64;4814015;59;1134511;-78
2024/01/25 00:05:46;;;;;;;16.13;2.60;;;;;;;6.31;100.00;100020.03;4798523;59;1138415;-78
2024/01/25 00:10:52;;;;;;;21.60;3.80;;;;;;;6.29;100.00;100010.94;4793582;59;1138585;-79
2024/01/25 00:15:58;;;;;;;20.10;4.67;;;;;;;6.21;100.00;100000.13;4834463;59;1138888;-78
2024/01/25 00:21:04;;;;;;;14.63;3.50;;;;;;;6.19;100.00;100028.27;4858477;58;1138908;-79
2024/01/25 00:26:10;;;;;;;10.62;2.26;;;;;;;6.19;100.00;100041.87;4865176;58;1138652;-78
2024/01/25 00:31:16;;;;;;;18.32;2.52;;;;;;;6.13;100.00;100026.52;4741779;60;1139135;-78
2024/01/25 00:36:22;;;;;;;9.83;2.35;;;;;;;6.13;100.00;100030.45;4883900;58;1139001;-78
2024/01/25 00:41:28;;;;;;;16.27;3.20;;;;;;;6.13;100.00;100035.70;4898857;58;1136371;-79
2024/01/25 00:46:34;;;;;;;9.70;2.37;;;;;;;6.14;100.00;100026.41;4948120;58;1138480;-79
2024/01/25 00:51:45;;;;;;;18.77;2.83;;;;;;;6.26;100.00;100045.28;4970775;58;1136598;-78
2024/01/25 00:56:52;;;;;;;14.30;2.97;;;;;;;6.28;100.00;100025.48;4957350;58;1139213;-79
2024/01/25 01:01:59;;;;;;;16.07;1.77;;;;;;;6.13;100.00;100028.67;4952334;58;1138934;-79
2024/01/25 01:07:06;;;;;;;9.00;2.47;;;;;;;5.99;100.00;100028.75;4958982;57;1139079;-78
2024/01/25 01:12:11;;;;;;;18.50;3.10;;;;;;;5.98;100.00;100047.59;4978732;57;1136622;-78
2024/01/25 01:17:18;;;;;;;7.70;1.57;;;;;;;5.89;100.00;100063.12;4946530;57;1138699;-78
2024/01/25 01:22:24;;;;;;;11.90;2.10;;;;;;;5.73;100.00;100059.31;4933056;57;1136754;-78
2024/01/25 01:27:29;;;;;;;13.28;3.70;;;;;;;5.62;100.00;100057.39;4895762;59;1138845;-79
2024/01/25 01:32:35;;;;;;;9.37;2.43;;;;;;;5.52;100.00;100079.04;4869601;58;1138724;-78
2024/01/25 01:37:40;;;;;;;21.83;3.83;;;;;;;5.39;100.00;100075.05;4883020;57;1136792;-79
2024/01/25 01:42:46;;;;;;;19.27;3.53;;;;;;;5.37;100.00;100076.92;5002633;57;1138587;-78
2024/01/25 01:47:52;;;;;;;25.13;3.50;;;;;;;5.37;100.00;100073.45;4954427;58;1138669;-78
2024/01/25 01:52:57;;;;;;;12.17;2.13;;;;;;;5.34;100.00;100083.70;4958831;57;1138548;-78
2024/01/25 01:58:04;;;;;;;27.40;2.65;;;;;;;5.36;100.00;100089.66;4954688;57;1139062;-78
2024/01/25 02:03:09;;;;;;;24.60;3.07;;;;;;;5.41;100.00;100098.09;4981695;58;1139033;-78
2024/01/25 02:08:16;;;;;;;16.77;3.23;;;;;;;5.43;100.00;100073.08;4958321;57;1138863;-78
2024/01/25 02:13:22;;;;;;;17.60;3.10;;;;;;;5.42;100.00;100083.20;4958386;58;1138765;-78
2024/01/25 02:18:28;;;;;;;11.90;2.80;;;;;;;5.39;100.00;100078.98;4974094;58;1138932;-78
2024/01/25 02:23:34;;;;;;;13.00;3.40;;;;;;;5.36;100.00;100078.33;4974630;56;1138834;-78
2024/01/25 02:28:40;;;;;;;24.03;3.07;;;;;;;5.39;100.00;100078.13;4988924;56;1138577;-78
2024/01/25 02:33:45;;;;;;;10.17;2.70;;;;;;;5.36;100.00;100067.37;5004700;56;1138681;-78
2024/01/25 02:38:51;;;;;;;11.13;2.10;;;;;;;5.38;100.00;100076.45;4982857;56;1138573;-79
2024/01/25 02:43:56;;;;;;;19.93;3.07;;;;;;;5.36;100.00;100067.84;4958078;57;1138461;-79
2024/01/25 02:49:02;;;;;;;22.13;3.98;;;;;;;5.35;100.00;100072.23;4944276;57;1138667;-78
2024/01/25 02:54:07;;;;;;;25.23;4.67;;;;;;;5.38;100.00;100081.70;4977789;58;1138769;-78
2024/01/25 02:59:13;;;;;;;12.88;2.40;;;;;;;5.35;100.00;100067.49;4956530;58;1138739;-79
2024/01/25 03:04:19;;;;;;;19.75;3.62;;;;;;;5.35;100.00;100058.31;4939850;57;1138758;-78
2024/01/25 03:09:24;;;;;;;22.90;4.12;;;;;;;5.38;100.00;100054.16;4978107;57;1138859;-78
2024/01/25 03:14:30;;;;;;;16.30;4.37;;;;;;;5.39;100.00;100027.84;4932647;57;1138965;-79
2024/01/25 03:19:36;;;;;;;19.47;4.30;;;;;;;5.43;100.00;100035.05;4861846;59;1138661;-79
2024/01/25 03:24:41;;;;;;;27.40;3.03;;;;;;;5.47;100.00;100054.91;4989784;57;1138694;-79
2024/01/25 03:29:47;;;;;;;11.20;3.17;;;;;;;5.50;100.00;100071.27;4992537;57;1138727;-78
2024/01/25 03:34:52;;;;;;;21.47;3.47;;;;;;;5.57;100.00;100081.75;4992494;56;1139227;-78
2024/01/25 03:39:59;;;;;;;16.52;3.17;;;;;;;5.62;100.00;100082.31;4972936;56;1139016;-79
2024/01/25 03:45:05;;;;;;;16.37;4.73;;;;;;;5.58;100.00;100093.93;4902587;57;1138655;-79
2024/01/25 03:50:11;;;;;;;26.23;4.50;;;;;;;5.56;100.00;100080.53;4954132;58;1138593;-79
2024/01/25 03:55:17;;;;;;;21.57;3.23;;;;;;;5.52;100.00;100082.50;4895794;57;1148346;-79
2024/01/25 04:00:22;;;;;;;16.07;2.80;;;;;;;5.50;100.00;100089.62;4969403;57;1138726;-79
2024/01/25 04:05:28;;;;;;;8.73;2.27;;;;;;;5.52;100.00;100086.44;4821533;59;1139006;-79
2024/01/25 04:10:34;;;;;;;12.17;3.60;;;;;;;5.50;100.00;100092.25;4782850;58;1136428;-78
2024/01/25 04:15:39;;;;;;;15.93;2.63;;;;;;;5.44;100.00;100082.62;4894021;58;1138908;-79
2024/01/25 04:20:46;;;;;;;13.03;1.53;;;;;;;5.44;100.00;100082.62;4886903;57;1138946;-78
2024/01/25 04:25:55;;;;;;;17.10;2.70;;;;;;;5.51;100.00;100087.38;4939099;57;1138544;-79
2024/01/25 04:30:59;;;;;;;13.90;2.03;;;;;;;5.52;100.00;100102.17;4874409;57;1138641;-79
2024/01/25 04:36:05;;;;;;;10.40;2.17;;;;;;;5.48;100.00;100102.02;4893104;59;1138519;-79
2024/01/25 04:41:11;;;;;;;17.93;2.70;;;;;;;5.40;100.00;100100.33;4894340;58;1138848;-79
2024/01/25 04:46:17;;;;;;;18.73;3.05;;;;;;;5.36;100.00;100099.30;4902236;57;1256268;-79
2024/01/25 04:51:23;;;;;;;11.83;2.87;;;;;;;5.33;100.00;100097.73;4945327;57;1138620;-79
2024/01/25 04:56:29;;;;;;;21.80;2.35;;;;;;;5.32;100.00;100068.99;4936108;57;1138737;-75
2024/01/25 05:01:35;;;;;;;11.07;2.17;;;;;;;5.32;100.00;100097.83;4946624;56;1138887;-76
2024/01/25 05:06:41;;;;;;;21.87;2.43;;;;;;;5.32;100.00;100093.90;4957987;56;1138794;-76
2024/01/25 05:11:46;;;;;;;6.77;2.13;;;;;;;5.30;100.00;100101.39;4935631;57;1138789;-72
2024/01/25 05:16:52;;;;;;;13.63;2.37;;;;;;;5.28;100.00;100106.35;4946394;56;1137071;-73
2024/01/25 05:21:57;;;;;;;11.67;2.53;;;;;;;5.24;100.00;100107.47;4961140;57;1139004;-76
2024/01/25 05:27:03;;;;;;;12.40;2.17;;;;;;;5.23;100.00;100119.73;4927823;57;1138854;-74
2024/01/25 05:32:09;;;;;;;7.05;2.58;;;;;;;5.23;100.00;100130.69;4922696;57;1138875;-73
2024/01/25 05:37:14;;;;;;;7.27;1.83;;;;;;;5.24;100.00;100139.77;4928514;57;1136691;-77
2024/01/25 05:42:20;;;;;;;8.20;2.07;;;;;;;5.24;100.00;100148.95;4911869;57;1136901;-73
2024/01/25 05:47:25;;;;;;;10.85;1.85;;;;;;;5.21;100.00;100144.36;4801009;58;1136823;-74
2024/01/25 05:52:32;;;;;;;18.37;4.05;;;;;;;5.19;100.00;100156.75;4771371;59;1138566;-76
2024/01/25 05:57:38;;;;;;;10.80;2.07;;;;;;;5.16;100.00;100155.61;4953329;58;1139003;-76
2024/01/25 06:02:43;;;;;;;14.53;3.30;;;;;;;5.12;100.00;100142.31;4950643;57;1138636;-73
2024/01/25 06:07:50;;;;;;;5.20;1.60;;;;;;;5.14;100.00;100153.08;4887564;58;1139349;-73
2024/01/25 06:12:55;;;;;;;10.07;2.80;;;;;;;5.04;100.00;100165.04;4875482;59;1136402;-74
2024/01/25 06:18:03;;;;;;;9.43;1.93;;;;;;;5.04;100.00;100165.04;4856757;59;1139038;-74
2024/01/25 06:23:08;;;;;;;14.37;2.17;;;;;;;5.09;100.00;100180.50;4906491;57;1136936;-72
2024/01/25 06:28:14;;;;;;;14.93;2.90;;;;;;;5.12;100.00;100187.72;4893614;58;1138823;-80
2024/01/25 06:33:19;;;;;;;14.53;2.23;;;;;;;5.10;100.00;100188.27;4887134;57;1148137;-79
2024/01/25 06:38:25;;;;;;;18.77;4.13;;;;;;;5.12;100.00;100190.34;4933928;56;1138718;-79
2024/01/25 06:43:31;;;;;;;22.02;3.60;;;;;;;5.14;100.00;100189.78;4983464;57;1138963;-79
2024/01/25 06:48:36;;;;;;;14.70;3.23;;;;;;;5.16;100.00;100206.27;4935754;56;1139336;-79
2024/01/25 06:53:42;;;;;;;20.40;3.97;;;;;;;5.16;100.00;100194.94;4907425;57;1138925;-79
2024/01/25 06:58:47;;;;;;;13.30;2.53;;;;;;;5.19;100.00;100211.33;4969831;57;1138745;-79
2024/01/25 07:03:53;;;;;;;8.03;2.77;;;;;;;5.18;100.00;100219.28;4873988;58;1138795;-79
2024/01/25 07:08:59;;;;;;;24.70;3.13;;;;;;;5.20;100.00;100236.58;4873873;58;1136997;-79
2024/01/25 07:14:04;;;;;;;7.70;2.17;;;;;;;5.22;100.00;100253.53;4861185;59;1138881;-80
2024/01/25 07:19:10;;;;;;;18.30;2.83;;;;;;;5.25;100.00;100264.69;4930745;57;1136853;-79
2024/01/25 07:24:16;;;;;;;11.40;2.53;;;;;;;5.30;100.00;100280.16;4945004;57;1138994;-79
2024/01/25 07:29:21;;;;;;;14.47;2.20;;;;;;;5.32;100.00;100286.16;4955604;57;1139131;-79
2024/01/25 07:34:27;;;;;;;13.70;3.03;;;;;;;5.33;100.00;100289.62;4967715;56;1138796;-79
2024/01/25 07:39:32;;;;;;;12.00;3.20;;;;;;;5.37;100.00;100308.16;4990611;56;1139298;-79
2024/01/25 07:44:38;;;;;;;10.97;3.57;;;;;;;5.35;100.00;100311.36;4950468;58;1138961;-79
2024/01/25 07:49:44;;;;;;;13.97;3.37;;;;;;;5.37;100.00;100318.17;4959643;56;1138448;-79
2024/01/25 07:54:49;;;;;;;12.80;3.07;;;;;;;5.37;100.00;100324.73;4946614;58;1138731;-79
2024/01/25 07:59:56;;;;;;;8.53;2.43;;;;;;;5.37;100.00;100330.44;4877509;57;1138968;-79
2024/01/25 08:05:01;;;;;;;12.10;3.27;;;;;;;5.35;100.00;100331.84;4868847;58;1136831;-79
2024/01/25 08:10:08;;;;;;;8.93;2.97;;;;;;;5.36;100.00;100328.28;4888346;59;1138608;-79
2024/01/25 08:15:14;;;;;;;21.73;3.73;;;;;;;5.33;100.00;100357.34;4856504;59;1137029;-79
2024/01/25 08:20:20;;;;;;;21.27;2.43;;;;;;;5.33;100.00;100373.07;4934593;57;1138429;-79
2024/01/25 08:25:26;;;;;;;14.67;2.70;;;;;;;5.29;100.00;100376.33;4970817;58;1139029;-79
2024/01/25 08:30:32;;;;;;;15.83;2.58;;;;;;;5.31;100.00;100384.11;4947245;58;1138808;-80
2024/01/25 08:35:39;;;;;;;13.77;2.67;;;;;;;5.28;100.00;100376.42;4954792;58;1138670;-80
2024/01/25 08:40:44;;;;;;;12.83;2.27;;;;;;;5.27;100.00;100384.75;4952576;58;1138697;-79
2024/01/25 08:45:50;;;;;;;16.10;2.10;;;;;;;5.26;100.00;100377.81;4899004;58;1139012;-79
2024/01/25 08:50:55;;;;;;;13.27;2.80;;;;;;;5.26;100.00;100394.02;4957195;58;1138541;-79
2024/01/25 08:56:02;;;;;;;28.47;4.90;;;;;;;5.26;100.00;100409.74;4953846;57;1138976;-79
2024/01/25 09:01:07;;;;;;;12.57;2.27;;;;;;;5.28;100.00;100411.81;4976131;58;1139131;-79
2024/01/25 09:06:15;;;;;;;21.70;3.02;;;;;;;5.30;100.00;100408.64;4947461;58;1138827;-79
2024/01/25 09:11:21;;;;;;;9.37;2.57;;;;;;;5.36;100.00;100425.31;4949974;57;1138697;-80
2024/01/25 09:16:26;;;;;;;14.33;2.73;;;;;;;5.42;100.00;100437.24;4967308;57;1136538;-79
2024/01/25 09:21:32;;;;;;;11.13;3.40;;;;;;;5.46;100.00;100440.92;4961271;57;1139126;-79
2024/01/25 09:26:37;;;;;;;15.00;2.65;;;;;;;5.48;100.00;100471.84;4945031;57;1139060;-79
2024/01/25 09:31:43;;;;;;;14.33;2.80;;;;;;;5.49;100.00;100468.75;4899892;57;1138647;-79
2024/01/25 09:36:49;;;;;;;15.10;2.87;;;;;;;5.49;100.00;100477.47;4903781;58;1139464;-79
2024/01/25 09:41:54;;;;;;;13.53;2.37;;;;;;;5.50;100.00;100487.00;4911085;57;1138463;-80
2024/01/25 09:47:02;;;;;;;22.23;3.37;;;;;;;5.48;100.00;100507.26;4929032;57;1143431;-79
2024/01/25 09:52:08;;;;;;;16.87;3.20;;;;;;;5.45;100.00;100500.02;4942615;57;1138807;-80
2024/01/25 09:57:20;;;;;;;14.13;2.93;;;;;;;5.43;100.00;100516.30;4921940;57;1138804;-80
2024/01/25 10:02:26;;;;;;;20.63;4.63;;;;;;;5.41;100.00;100515.08;4982526;56;1138870;-79
2024/01/25 10:07:42;;;;;;;13.00;4.30;;;;;;;5.38;100.00;100517.86;4954888;57;1138990;-79
2024/01/25 10:12:47;;;;;;;24.63;5.70;;;;;;;5.37;100.00;100534.99;4968889;57;1139052;-79
2024/01/25 10:17:53;;;;;;;20.03;3.90;;;;;;;5.37;100.00;100525.81;4942927;57;1139938;-79
2024/01/25 10:23:00;;;;;;;24.37;3.65;;;;;;;5.36;100.00;100535.92;4955361;57;1139067;-79
2024/01/25 10:28:07;;;;;;;13.77;2.13;;;;;;;5.38;100.00;100531.44;4962160;57;1138770;-78
2024/01/25 10:33:14;;;;;;;11.93;2.85;;;;;;;5.40;100.00;100535.67;4921605;57;1138769;-78
2024/01/25 10:38:19;;;;;;;13.47;3.23;;;;;;;5.43;100.00;100543.84;4938016;57;1138675;-80
2024/01/25 10:43:25;;;;;;;21.47;4.97;;;;;;;5.52;100.00;100548.56;4948864;58;1138654;-79
2024/01/25 10:48:32;;;;;;;22.62;4.35;;;;;;;5.59;100.00;100550.77;4886519;57;1138726;-79
2024/01/25 10:53:38;;;;;;;14.40;3.60;;;;;;;5.65;100.00;100554.84;4871826;57;1138936;-79
2024/01/25 10:58:44;;;;;;;14.63;3.90;;;;;;;5.67;100.00;100556.88;4902380;57;1138793;-79
2024/01/25 11:03:51;;;;;;;13.62;2.85;;;;;;;5.71;100.00;100570.67;4917961;56;1139018;-79
2024/01/25 11:09:12;;;;;;;21.20;6.57;;;;;;;5.72;100.00;100575.84;4910743;57;1139041;-80
2024/01/25 11:14:20;;;;;;;20.05;4.72;;;;;;;5.74;100.00;100583.63;4915065;57;1139081;-80
2024/01/25 11:19:25;;;;;;;15.83;3.90;;;;;;;5.75;100.00;100577.45;4951098;57;1144882;-81
2024/01/25 11:24:31;;;;;;;18.90;4.05;;;;;;;5.78;100.00;100582.06;4924173;57;1139108;-80
2024/01/25 11:29:37;;;;;;;25.33;5.57;;;;;;;5.79;100.00;100591.63;4945994;57;1138589;-80
2024/01/25 11:34:43;;;;;;;19.20;3.67;;;;;;;5.80;100.00;100586.77;4977330;56;1138673;-80
2024/01/25 11:39:49;;;;;;;21.10;4.03;;;;;;;5.81;100.00;100592.83;4958969;58;1138921;-80
2024/01/25 11:44:55;;;;;;;20.37;4.10;;;;;;;5.81;100.00;100591.05;4956812;57;1138786;-80
2024/01/25 11:50:01;;;;;;;22.50;6.08;;;;;;;5.82;100.00;100620.77;4988581;56;1139338;-80
2024/01/25 11:55:09;;;;;;;15.57;4.13;;;;;;;5.81;100.00;100615.98;5001947;57;1138801;-80
2024/01/25 12:00:16;;;;;;;19.83;4.33;;;;;;;5.81;100.00;100627.80;4977944;56;1139117;-80
2024/01/25 12:05:22;;;;;;;20.17;4.43;;;;;;;5.82;100.00;100624.23;4947800;57;1138955;-81
2024/01/25 12:10:28;;;;;;;13.45;3.40;;;;;;;5.81;100.00;100637.45;4974424;58;1138713;-79
2024/01/25 12:15:37;;;;;;;30.47;6.37;;;;;;;5.81;100.00;100661.91;4950281;58;1138663;-80
2024/01/25 12:20:43;;;;;;;24.27;3.67;;;;;;;5.81;100.00;100655.35;4956598;58;1139004;-80
2024/01/25 12:25:48;;;;;;;21.93;3.87;;;;;;;5.80;100.00;100665.50;4963138;58;1138697;-80
2024/01/25 12:30:54;;;;;;;18.27;4.17;;;;;;;5.79;100.00;100674.30;4924313;58;1138783;-80
2024/01/25 12:36:00;;;;;;;25.73;4.93;;;;;;;5.74;100.00;100681.57;4923859;58;1138951;-80
2024/01/25 12:41:06;;;;;;;23.15;4.20;;;;;;;5.70;100.00;100694.94;4922107;57;1138801;-79
2024/01/25 12:46:11;;;;;;;16.63;4.47;;;;;;;5.65;100.00;100697.83;4939426;58;1138810;-79
2024/01/25 12:51:17;;;;;;;26.83;4.63;;;;;;;5.64;100.00;100700.08;4791585;59;1138748;-80
2024/01/25 12:56:23;;;;;;;22.80;5.67;;;;;;;5.62;100.00;100713.73;4795964;58;1139022;-79
2024/01/25 13:01:29;;;;;;;28.98;6.10;;;;;;;5.59;100.00;100712.12;4812706;58;1138727;-80
2024/01/25 13:06:34;;;;;;;21.25;5.40;;;;;;;5.57;100.00;100711.34;4792395;58;1138864;-80
2024/01/25 13:11:40;;;;;;;24.32;5.08;;;;;;;5.55;100.00;100720.23;4757274;59;1138930;-79
2024/01/25 13:16:46;;;;;;;17.20;3.63;;;;;;;5.54;100.00;100708.03;4939469;57;1138713;-79
2024/01/25 13:21:51;;;;;;;19.40;5.03;;;;;;;5.49;100.00;100716.17;4919905;58;1138893;-79
2024/01/25 13:26:57;;;;;;;23.43;4.83;;;;;;;5.48;100.00;100733.30;4791085;59;1138772;-81
2024/01/25 13:32:03;;;;;;;23.07;5.20;;;;;;;5.43;100.00;100735.31;4763948;58;1138752;-79
2024/01/25 13:37:09;;;;;;;20.47;4.13;;;;;;;5.42;100.00;100742.80;4862794;58;1139522;-80
2024/01/25 13:42:14;;;;;;;16.63;3.77;;;;;;;5.41;100.00;100751.12;4944126;58;1138549;-79
2024/01/25 13:47:22;;;;;;;19.60;4.37;;;;;;;5.38;100.00;100752.59;4963138;58;1138453;-80
2024/01/25 13:52:27;;;;;;;203.90;108.57;;;;;;;5.37;100.00;100781.06;4865017;57;1139177;-80
2024/01/25 13:57:33;;;;;;;30.97;11.43;;;;;;;5.32;100.00;100786.17;4636928;61;1145307;-77
2024/01/25 14:02:46;;;;;;;39.25;13.83;;;;;;;5.25;100.00;100791.72;4637279;60;1140792;-79
2024/01/25 14:07:48;;;;;;;45.10;15.87;;;;;;;5.17;100.00;100797.84;4632628;60;1140650;-79
2024/01/25 14:12:56;;;;;;;25.77;11.53;;;;;;;5.13;100.00;100805.92;4567014;61;1140761;-80
2024/01/25 14:18:01;;;;;;;27.13;3.80;;;;;;;5.13;100.00;100817.72;4570646;60;1141011;-76
2024/01/25 14:23:07;;;;;;;53.40;23.13;;;;;;;5.10;100.00;100829.20;4637295;58;1148219;-77
2024/01/25 14:28:13;;;;;;;31.53;8.57;;;;;;;5.08;100.00;100839.38;4738986;60;1140943;-78
2024/01/25 14:33:18;;;;;;;35.87;8.13;;;;;;;5.04;100.00;100850.47;4710270;58;1138954;-78
2024/01/25 14:38:24;;;;;;;20.93;6.27;;;;;;;5.03;100.00;100851.42;4614552;61;1138743;-78
2024/01/25 14:43:30;;;;;;;16.70;4.43;;;;;;;5.01;100.00;100855.89;4676142;59;1139213;-79
2024/01/25 14:48:35;;;;;;;21.42;5.10;;;;;;;4.96;100.00;100865.73;4648443;61;1138920;-79
2024/01/25 14:53:41;;;;;;;18.23;5.42;;;;;;;4.96;100.00;100881.47;4613623;61;1138690;-80
2024/01/25 14:58:46;;;;;;;21.50;4.63;;;;;;;4.94;100.00;100892.02;4672512;60;1138649;-79
2024/01/25 15:03:52;;;;;;;41.20;13.87;;;;;;;4.92;100.00;100910.05;4676307;60;1138960;-81
2024/01/25 15:08:58;;;;;;;32.10;9.58;;;;;;;4.92;100.00;100908.73;4690378;60;1141031;-77
2024/01/25 15:14:03;;;;;;;21.23;5.77;;;;;;;4.89;100.00;100916.73;4633729;60;1138606;-79
2024/01/25 15:19:09;;;;;;;19.10;5.63;;;;;;;4.88;100.00;100927.72;4665790;60;1138987;-78
2024/01/25 15:24:16;;;;;;;30.17;10.67;;;;;;;4.92;100.00;100934.48;4664084;60;1138652;-82
2024/01/25 15:29:21;;;;;;;23.87;8.07;;;;;;;4.92;100.00;100934.48;4670158;60;1141002;-78
2024/01/25 15:34:28;;;;;;;26.95;7.40;;;;;;;4.93;100.00;100944.51;4678130;60;1138692;-78
2024/01/25 15:39:33;;;;;;;38.87;11.67;;;;;;;4.91;100.00;100955.52;4612820;61;1139060;-78
2024/01/25 15:44:39;;;;;;;24.40;7.50;;;;;;;4.91;100.00;100970.79;4657135;60;1140895;-80
2024/01/25 15:49:44;;;;;;;31.73;8.33;;;;;;;4.93;100.00;100974.19;4630978;60;1139012;-78
2024/01/25 15:54:51;;;;;;;26.50;6.40;;;;;;;4.97;100.00;100981.92;4662019;59;1138879;-79
2024/01/25 15:59:57;;;;;;;22.87;7.70;;;;;;;4.98;100.00;100990.17;4643849;60;1138696;-78
2024/01/25 16:05:03;;;;;;;43.87;12.73;;;;;;;4.98;100.00;100989.71;4673798;60;1138526;-78
2024/01/25 16:10:09;;;;;;;43.63;14.27;;;;;;;5.01;100.00;100999.20;4701420;60;1140926;-80
2024/01/25 16:15:16;;;;;;;48.53;12.37;;;;;;;5.01;100.00;101013.63;4555646;61;1141282;-81
2024/01/25 16:20:25;;;;;;;26.83;7.17;;;;;;;5.01;100.00;101019.72;4643190;59;1140836;-82
2024/01/25 16:25:30;;;;;;;26.67;7.73;;;;;;;5.03;100.00;101030.98;4663389;59;1138845;-77
2024/01/25 16:30:35;;;;;;;24.43;7.65;;;;;;;5.05;100.00;101035.67;4712698;59;1138929;-85
2024/01/25 16:35:44;;;;;;;32.65;7.42;;;;;;;5.04;100.00;101041.83;4714767;60;1138769;-84
2024/01/25 16:40:50;;;;;;;20.00;7.27;;;;;;;5.06;100.00;101049.63;4626604;60;1138906;-79
2024/01/25 16:45:55;;;;;;;37.83;14.43;;;;;;;5.05;100.00;101057.95;4642260;60;1138996;-80
2024/01/25 16:51:01;;;;;;;354.07;272.80;;;;;;;5.05;100.00;101063.20;4650016;60;1141027;-82
2024/01/25 16:56:08;;;;;;;38.53;16.15;;;;;;;5.06;100.00;101076.70;4654284;60;1145133;-77
2024/01/25 17:01:13;;;;;;;48.40;19.67;;;;;;;5.06;100.00;101073.22;4648433;59;1141077;-79
2024/01/25 17:06:19;;;;;;;54.93;20.70;;;;;;;5.07;100.00;101083.64;4591440;61;1141142;-79
2024/01/25 17:11:26;;;;;;;30.37;11.47;;;;;;;5.06;100.00;101087.19;4722304;59;1141008;-78
2024/01/25 17:16:31;;;;;;;34.47;12.67;;;;;;;5.03;100.00;101099.14;4677673;60;1145086;-80
2024/01/25 17:21:37;;;;;;;30.70;8.57;;;;;;;5.03;100.00;101099.14;4633797;58;1140982;-80
2024/01/25 17:26:43;;;;;;;35.63;8.98;;;;;;;5.08;100.00;101107.63;4629075;60;1138639;-80
2024/01/25 17:31:49;;;;;;;33.13;10.73;;;;;;;5.10;100.00;101113.66;4633622;60;1139064;-80
2024/01/25 17:36:55;;;;;;;60.53;30.03;;;;;;;5.14;100.00;101120.94;4673137;59;1142891;-80
2024/01/25 17:42:01;;;;;;;57.70;27.87;;;;;;;5.14;100.00;101131.42;4674134;60;1143049;-82
2024/01/25 17:47:07;;;;;;;37.03;13.72;;;;;;;5.13;100.00;101134.50;4671802;60;1142721;-80
2024/01/25 17:52:12;;;;;;;77.23;40.63;;;;;;;5.12;100.00;101136.73;4673513;60;1142932;-83
2024/01/25 17:57:18;;;;;;;51.57;22.60;;;;;;;5.09;100.00;101143.88;4666830;60;1142990;-78
2024/01/25 18:02:24;;;;;;;32.42;16.12;;;;;;;5.13;100.00;101141.52;4703807;60;1142760;-77
2024/01/25 18:07:30;;;;;;;44.17;24.07;;;;;;;5.05;100.00;101140.99;4687962;60;1143157;-79
2024/01/25 18:12:35;;;;;;;29.07;11.07;;;;;;;5.00;100.00;101142.53;4653996;60;1143320;-80
2024/01/25 18:17:41;;;;;;;1999.90;981.10;;;;;;;5.00;100.00;101150.85;4658777;59;1141053;-79
2024/01/25 18:22:46;;;;;;;1999.90;999.90;;;;;;;4.92;100.00;101157.27;4688787;59;1147305;-78
2024/01/25 18:27:54;;;;;;;578.90;355.40;;;;;;;4.87;100.00;101166.27;4672069;58;1148080;-79
2024/01/25 18:32:59;;;;;;;128.93;70.53;;;;;;;4.85;100.00;101179.44;4681699;59;1145085;-84
2024/01/25 18:38:05;;;;;;;27.33;9.97;;;;;;;4.85;100.00;101172.04;4741474;59;1143008;-79
2024/01/25 18:43:11;;;;;;;35.43;11.10;;;;;;;4.84;100.00;101179.50;4689860;59;1138976;-82
2024/01/25 18:48:16;;;;;;;225.50;124.30;;;;;;;4.85;100.00;101184.69;4645533;60;1141356;-79
2024/01/25 18:53:22;;;;;;;54.10;33.30;;;;;;;4.84;100.00;101189.98;4634854;60;1144925;-79
2024/01/25 18:58:28;;;;;;;68.67;48.40;;;;;;;4.83;100.00;101193.06;4614582;61;1142912;-78
2024/01/25 19:03:34;;;;;;;15.53;3.60;;;;;;;4.79;100.00;101208.52;4679582;60;1140978;-79
2024/01/25 19:08:40;;;;;;;11.40;2.55;;;;;;;4.75;100.00;101209.56;4657897;60;1139075;-81
2024/01/25 19:13:45;;;;;;;11.43;3.47;;;;;;;4.73;100.00;101221.05;4677055;60;1138888;-78
2024/01/25 19:18:52;;;;;;;25.53;7.83;;;;;;;4.72;100.00;101217.58;4630620;60;1138615;-82
2024/01/25 19:23:57;;;;;;;56.07;15.30;;;;;;;4.69;100.00;101211.15;4675051;59;1138919;-80
2024/01/25 19:29:03;;;;;;;27.97;8.83;;;;;;;4.69;100.00;101222.94;4655710;59;1140908;-80
2024/01/25 19:34:09;;;;;;;22.27;5.90;;;;;;;4.67;100.00;101222.14;4660773;61;1139088;-83
2024/01/25 19:39:15;;;;;;;12.67;4.50;;;;;;;4.65;100.00;101222.66;4627026;60;1138674;-78
2024/01/25 19:44:21;;;;;;;24.33;5.93;;;;;;;4.62;100.00;101235.03;4665786;60;1138813;-80
2024/01/25 19:49:28;;;;;;;17.40;4.33;;;;;;;4.62;100.00;101233.72;4704872;60;1138438;-78
2024/01/25 19:54:35;;;;;;;18.63;4.53;;;;;;;4.60;100.00;101254.74;4694633;58;1138674;-82
2024/01/25 19:59:42;;;;;;;11.93;5.10;;;;;;;4.56;100.00;101256.66;4677442;59;1139390;-80
2024/01/25 20:04:49;;;;;;;19.35;6.20;;;;;;;4.56;100.00;101259.28;4671021;60;1138842;-81
2024/01/25 20:09:54;;;;;;;22.23;11.47;;;;;;;4.55;100.00;101265.89;4672530;60;1138835;-80
2024/01/25 20:15:00;;;;;;;36.43;16.53;;;;;;;4.54;100.00;101263.72;4677927;60;1141036;-81
2024/01/25 20:20:06;;;;;;;16.53;6.97;;;;;;;4.52;100.00;101266.00;4654691;60;1140943;-80
2024/01/25 20:25:12;;;;;;;14.80;6.77;;;;;;;4.48;100.00;101265.73;4680840;60;1138809;-79
2024/01/25 20:30:17;;;;;;;14.27;4.70;;;;;;;4.46;100.00;101269.72;4657326;60;1138797;-78
2024/01/25 20:35:23;;;;;;;25.47;6.40;;;;;;;4.47;100.00;101278.42;4676803;60;1138700;-79
2024/01/25 20:40:30;;;;;;;21.17;4.73;;;;;;;4.47;100.00;101283.66;4707476;60;1138575;-81
2024/01/25 20:45:35;;;;;;;30.67;9.17;;;;;;;4.49;100.00;101299.72;4648299;61;1144507;-76
2024/01/25 20:50:41;;;;;;;122.45;73.80;;;;;;;4.47;100.00;101302.00;4654527;60;1139084;-80
2024/01/25 20:55:47;;;;;;;46.33;23.98;;;;;;;4.45;100.00;101298.13;4662528;58;1143018;-81
2024/01/25 21:00:53;;;;;;;29.60;13.33;;;;;;;4.44;100.00;101292.95;4600383;62;1140878;-81
2024/01/25 21:05:59;;;;;;;18.90;7.10;;;;;;;4.41;100.00;101298.33;4666357;59;1140963;-81
2024/01/25 21:11:09;;;;;;;20.87;6.67;;;;;;;4.38;100.00;101296.68;4682237;60;1138980;-81
2024/01/25 21:16:16;;;;;;;15.93;4.10;;;;;;;4.33;100.00;101295.14;4662532;60;1139051;-82
2024/01/25 21:21:22;;;;;;;17.53;4.53;;;;;;;4.34;100.00;101286.38;4631590;60;1138980;-81
2024/01/25 21:26:29;;;;;;;11.90;3.70;;;;;;;4.30;100.00;101291.33;4639625;60;1138759;-81
2024/01/25 21:31:34;;;;;;;16.60;4.07;;;;;;;4.30;100.00;101292.64;4626185;60;1138877;-82
2024/01/25 21:36:40;;;;;;;15.53;4.70;;;;;;;4.28;100.00;101297.11;4595535;61;1139087;-81
2024/01/25 21:41:45;;;;;;;15.47;4.23;;;;;;;4.26;100.00;101295.86;4644208;61;1138828;-81
2024/01/25 21:46:52;;;;;;;14.67;3.93;;;;;;;4.25;100.00;101303.31;4660220;61;1145855;-81
2024/01/25 21:51:57;;;;;;;10.30;2.83;;;;;;;4.20;100.00;101311.34;4681013;60;1138948;-81
2024/01/25 21:57:03;;;;;;;15.50;3.10;;;;;;;4.17;100.00;101319.30;4642964;60;1138813;-81
2024/01/25 22:02:08;;;;;;;13.53;4.22;;;;;;;4.13;100.00;101326.87;4628639;60;1139334;-81
2024/01/25 22:07:14;;;;;;;10.73;3.67;;;;;;;4.13;100.00;101337.34;4642927;60;1138704;-81
2024/01/25 22:12:19;;;;;;;22.53;2.67;;;;;;;4.08;100.00;101343.69;4639799;60;1139153;-81
2024/01/25 22:17:25;;;;;;;10.47;3.20;;;;;;;4.09;100.00;101346.25;4632974;60;1139001;-81
2024/01/25 22:22:31;;;;;;;10.93;2.23;;;;;;;4.11;100.00;101349.66;4577423;62;1138864;-81
2024/01/25 22:27:36;;;;;;;16.47;3.03;;;;;;;4.09;100.00;101359.79;4563471;62;1138979;-81
2024/01/25 22:32:42;;;;;;;8.18;2.72;;;;;;;4.08;100.00;101358.94;4621463;59;1138873;-81
2024/01/25 22:37:48;;;;;;;16.55;3.98;;;;;;;4.08;100.00;101354.16;4600420;61;1137115;-81
2024/01/25 22:42:53;;;;;;;10.87;3.77;;;;;;;4.11;100.00;101367.98;4607613;60;1138820;-81
2024/01/25 22:47:59;;;;;;;11.63;2.63;;;;;;;4.06;100.00;101363.82;4598209;60;1138907;-81